createdAt,value
2017-02-13T00:00:45.425Z,0
2017-02-13T00:01:55.722Z,0
2017-02-13T00:03:06.052Z,0
2017-02-13T00:04:16.338Z,0
2017-02-13T00:05:26.811Z,0
2017-02-13T00:06:36.716Z,0
2017-02-13T00:07:47.401Z,0
2017-02-13T00:08:57.307Z,0
2017-02-13T00:10:07.240Z,0
2017-02-13T00:11:17.897Z,0
2017-02-13T00:12:27.432Z,0
2017-02-13T00:13:37.762Z,0
2017-02-13T00:14:48.077Z,0
2017-02-13T00:15:58.770Z,0
2017-02-13T00:17:09.534Z,0
2017-02-13T00:18:19.478Z,0
2017-02-13T00:19:29.778Z,0
2017-02-13T00:20:40.480Z,0
2017-02-13T00:21:51.174Z,0
2017-02-13T00:23:01.545Z,0
2017-02-13T00:24:12.218Z,0
2017-02-13T00:25:22.485Z,0
2017-02-13T00:26:33.176Z,0
2017-02-13T00:27:43.854Z,0
2017-02-13T00:28:54.257Z,0
2017-02-13T00:30:04.548Z,0
2017-02-13T00:31:15.223Z,0
2017-02-13T00:32:25.523Z,0
2017-02-13T00:33:35.819Z,0
2017-02-13T00:34:45.567Z,0
2017-02-13T00:35:56.250Z,0
2017-02-13T00:37:06.915Z,0
2017-02-13T00:38:17.602Z,0
2017-02-13T00:39:28.303Z,0
2017-02-13T00:40:38.317Z,0
2017-02-13T00:41:48.619Z,0
2017-02-13T00:42:58.897Z,0
2017-02-13T00:44:08.793Z,0
2017-02-13T00:45:19.089Z,0
2017-02-13T00:46:29.313Z,0
2017-02-13T00:47:39.897Z,0
2017-02-13T00:48:50.480Z,0
2017-02-13T00:50:00.414Z,0
2017-02-13T00:51:10.338Z,0
2017-02-13T00:52:19.990Z,0
2017-02-13T00:53:30.289Z,0
2017-02-13T00:54:40.587Z,0
2017-02-13T00:55:50.859Z,0
2017-02-13T00:57:01.135Z,0
2017-02-13T00:58:12.044Z,0
2017-02-13T00:59:22.367Z,0
2017-02-13T01:00:33.122Z,0
2017-02-13T01:01:43.406Z,0
2017-02-13T01:02:53.715Z,0
2017-02-13T01:04:04.665Z,0
2017-02-13T01:05:15.329Z,0
2017-02-13T01:06:25.642Z,0
2017-02-13T01:07:35.913Z,0
2017-02-13T01:08:46.591Z,0
2017-02-13T01:09:57.156Z,0
2017-02-13T01:11:07.850Z,0
2017-02-13T01:12:17.772Z,0
2017-02-13T01:13:28.444Z,0
2017-02-13T01:14:38.777Z,0
2017-02-13T01:15:49.346Z,0
2017-02-13T01:17:00.024Z,0
2017-02-13T01:18:10.990Z,0
2017-02-13T01:19:21.275Z,0
2017-02-13T01:20:31.573Z,0
2017-02-13T01:21:42.553Z,0
2017-02-13T01:22:52.824Z,0
2017-02-13T01:24:03.119Z,0
2017-02-13T01:25:13.012Z,0
2017-02-13T01:26:23.307Z,0
2017-02-13T01:27:33.848Z,0
2017-02-13T01:28:44.503Z,0
2017-02-13T01:29:54.844Z,0
2017-02-13T01:31:04.740Z,0
2017-02-13T01:32:15.407Z,0
2017-02-13T01:33:26.344Z,0
2017-02-13T01:34:36.685Z,0
2017-02-13T01:35:47.358Z,0
2017-02-13T01:36:57.634Z,0
2017-02-13T01:38:07.889Z,0
2017-02-13T01:39:18.434Z,0
2017-02-13T01:40:29.152Z,0
2017-02-13T01:41:39.043Z,0
2017-02-13T01:42:49.346Z,0
2017-02-13T01:43:59.677Z,0
2017-02-13T01:45:10.251Z,0
2017-02-13T01:46:20.578Z,0
2017-02-13T01:47:30.869Z,0
2017-02-13T01:48:41.161Z,0
2017-02-13T01:49:51.826Z,0
2017-02-13T01:51:02.390Z,0
2017-02-13T01:52:13.125Z,0
2017-02-13T01:53:23.410Z,0
2017-02-13T01:54:34.087Z,0
2017-02-13T01:55:44.377Z,0
2017-02-13T01:56:54.981Z,0
2017-02-13T01:58:05.693Z,0
2017-02-13T01:59:15.968Z,0
2017-02-13T02:00:26.330Z,0
2017-02-13T02:01:36.640Z,0
2017-02-13T02:02:47.160Z,0
2017-02-13T02:03:57.080Z,0
2017-02-13T02:05:07.410Z,0
2017-02-13T02:06:17.627Z,0
2017-02-13T02:07:27.539Z,0
2017-02-13T02:08:38.538Z,0
2017-02-13T02:09:48.837Z,0
2017-02-13T02:10:59.114Z,0
2017-02-13T02:12:09.809Z,0
2017-02-13T02:13:20.108Z,0
2017-02-13T02:14:30.306Z,0
2017-02-13T02:15:40.974Z,0
2017-02-13T02:16:51.643Z,0
2017-02-13T02:18:01.962Z,0
2017-02-13T02:19:12.239Z,0
2017-02-13T02:20:23.161Z,0
2017-02-13T02:21:33.870Z,0
2017-02-13T02:22:44.532Z,0
2017-02-13T02:23:55.329Z,0
2017-02-13T02:25:06.022Z,0
2017-02-13T02:26:16.453Z,0
2017-02-13T02:27:27.026Z,0
2017-02-13T02:28:37.752Z,0
2017-02-13T02:29:48.032Z,0
2017-02-13T02:30:57.958Z,0
2017-02-13T02:32:08.909Z,0
2017-02-13T02:33:19.620Z,0
2017-02-13T02:34:30.307Z,0
2017-02-13T02:35:40.595Z,0
2017-02-13T02:36:51.284Z,0
2017-02-13T02:38:01.444Z,0
2017-02-13T02:39:11.351Z,0
2017-02-13T02:40:21.236Z,0
2017-02-13T02:41:31.901Z,0
2017-02-13T02:42:42.176Z,0
2017-02-13T02:43:52.790Z,0
2017-02-13T02:45:03.464Z,0
2017-02-13T02:46:13.793Z,0
2017-02-13T02:47:24.090Z,0
2017-02-13T02:48:33.981Z,0
2017-02-13T02:49:44.526Z,0
2017-02-13T02:50:54.424Z,0
2017-02-13T02:52:04.715Z,0
2017-02-13T02:53:15.018Z,0
2017-02-13T02:54:25.338Z,0
2017-02-13T02:55:35.873Z,0
2017-02-13T02:56:46.558Z,0
2017-02-13T02:57:57.266Z,0
2017-02-13T02:59:07.976Z,0
2017-02-13T03:00:18.271Z,0
2017-02-13T03:01:28.157Z,0
2017-02-13T03:02:38.828Z,0
2017-02-13T03:03:49.137Z,0
2017-02-13T03:04:59.794Z,0
2017-02-13T03:06:10.092Z,0
2017-02-13T03:07:20.641Z,0
2017-02-13T03:08:30.925Z,0
2017-02-13T03:09:40.847Z,0
2017-02-13T03:10:51.151Z,0
2017-02-13T03:12:00.732Z,0
2017-02-13T03:13:11.257Z,0
2017-02-13T03:14:21.164Z,0
2017-02-13T03:15:31.856Z,0
2017-02-13T03:16:42.515Z,0
2017-02-13T03:17:52.841Z,0
2017-02-13T03:19:03.806Z,0
2017-02-13T03:20:13.725Z,0
2017-02-13T03:21:24.394Z,0
2017-02-13T03:22:34.703Z,0
2017-02-13T03:23:44.984Z,0
2017-02-13T03:24:55.569Z,0
2017-02-13T03:26:05.111Z,0
2017-02-13T03:27:14.993Z,0
2017-02-13T03:28:25.256Z,0
2017-02-13T03:29:35.157Z,0
2017-02-13T03:30:45.284Z,0
2017-02-13T03:31:55.947Z,0
2017-02-13T03:33:05.866Z,0
2017-02-13T03:34:16.543Z,0
2017-02-13T03:35:26.847Z,0
2017-02-13T03:36:37.836Z,0
2017-02-13T03:37:48.526Z,0
2017-02-13T03:38:58.465Z,0
2017-02-13T03:40:08.742Z,0
2017-02-13T03:41:19.419Z,0
2017-02-13T03:42:30.119Z,0
2017-02-13T03:43:40.808Z,0
2017-02-13T03:44:51.125Z,0
2017-02-13T03:46:01.812Z,0
2017-02-13T03:47:12.469Z,0
2017-02-13T03:48:23.382Z,0
2017-02-13T03:49:33.686Z,0
2017-02-13T03:50:44.359Z,0
2017-02-13T03:51:55.023Z,0
2017-02-13T03:53:05.317Z,0
2017-02-13T03:54:16.305Z,0
2017-02-13T03:55:27.031Z,0
2017-02-13T03:56:37.323Z,0
2017-02-13T03:57:47.215Z,0
2017-02-13T03:58:56.758Z,0
2017-02-13T04:00:07.349Z,0
2017-02-13T04:01:17.270Z,0
2017-02-13T04:02:27.519Z,0
2017-02-13T04:03:37.824Z,0
2017-02-13T04:04:48.110Z,0
2017-02-13T04:05:58.278Z,0
2017-02-13T04:07:08.166Z,0
2017-02-13T04:08:18.840Z,0
2017-02-13T04:09:29.535Z,0
2017-02-13T04:10:40.227Z,0
2017-02-13T04:11:50.233Z,0
2017-02-13T04:13:00.535Z,0
2017-02-13T04:14:10.830Z,0
2017-02-13T04:15:21.509Z,0
2017-02-13T04:16:32.207Z,0
2017-02-13T04:17:42.735Z,0
2017-02-13T04:18:53.046Z,0
2017-02-13T04:20:03.746Z,0
2017-02-13T04:21:13.646Z,0
2017-02-13T04:22:24.312Z,0
2017-02-13T04:23:34.867Z,0
2017-02-13T04:24:45.560Z,0
2017-02-13T04:25:55.486Z,0
2017-02-13T04:27:05.785Z,0
2017-02-13T04:28:15.695Z,0
2017-02-13T04:29:26.253Z,0
2017-02-13T04:30:36.920Z,0
2017-02-13T04:31:47.205Z,0
2017-02-13T04:32:57.871Z,0
2017-02-13T04:34:08.200Z,0
2017-02-13T04:35:18.762Z,0
2017-02-13T04:36:29.072Z,0
2017-02-13T04:37:39.769Z,0
2017-02-13T04:38:50.444Z,0
2017-02-13T04:40:01.118Z,0
2017-02-13T04:41:12.097Z,0
2017-02-13T04:42:22.378Z,0
2017-02-13T04:43:33.048Z,0
2017-02-13T04:44:43.341Z,0
2017-02-13T04:45:53.256Z,0
2017-02-13T04:47:03.821Z,0
2017-02-13T04:48:14.092Z,0
2017-02-13T04:49:24.387Z,0
2017-02-13T04:50:35.075Z,0
2017-02-13T04:51:45.745Z,0
2017-02-13T04:52:56.692Z,0
2017-02-13T04:54:07.024Z,0
2017-02-13T04:55:16.920Z,0
2017-02-13T04:56:27.595Z,0
2017-02-13T04:57:37.892Z,0
2017-02-13T04:58:48.833Z,0
2017-02-13T04:59:59.521Z,0
2017-02-13T05:01:09.889Z,0
2017-02-13T05:02:20.177Z,0
2017-02-13T05:03:30.850Z,0
2017-02-13T05:04:40.596Z,0
2017-02-13T05:05:51.282Z,0
2017-02-13T05:07:01.574Z,0
2017-02-13T05:08:11.873Z,0
2017-02-13T05:09:22.542Z,0
2017-02-13T05:10:33.491Z,0
2017-02-13T05:11:43.839Z,0
2017-02-13T05:12:54.555Z,0
2017-02-13T05:14:05.254Z,0
2017-02-13T05:15:15.926Z,0
2017-02-13T05:16:26.458Z,0
2017-02-13T05:17:36.761Z,0
2017-02-13T05:18:47.431Z,0
2017-02-13T05:19:57.315Z,0
2017-02-13T05:21:07.236Z,0
2017-02-13T05:22:17.382Z,0
2017-02-13T05:23:28.108Z,0
2017-02-13T05:24:38.802Z,0
2017-02-13T05:25:49.083Z,0
2017-02-13T05:26:59.804Z,0
2017-02-13T05:28:10.792Z,0
2017-02-13T05:29:20.278Z,0
2017-02-13T05:30:30.933Z,0
2017-02-13T05:31:40.092Z,0
2017-02-13T05:32:50.791Z,0
2017-02-13T05:34:00.967Z,0
2017-02-13T05:35:11.544Z,0
2017-02-13T05:36:21.847Z,0
2017-02-13T05:37:32.520Z,0
2017-02-13T05:38:43.199Z,0
2017-02-13T05:39:54.160Z,0
2017-02-13T05:41:04.447Z,0
2017-02-13T05:42:14.771Z,0
2017-02-13T05:43:24.694Z,0
2017-02-13T05:44:35.384Z,0
2017-02-13T05:45:46.308Z,0
2017-02-13T05:46:55.839Z,0
2017-02-13T05:48:06.195Z,0
2017-02-13T05:49:16.496Z,0
2017-02-13T05:50:26.421Z,0
2017-02-13T05:51:37.348Z,0
2017-02-13T05:52:47.644Z,0
2017-02-13T05:53:57.966Z,0
2017-02-13T05:55:07.464Z,0
2017-02-13T05:56:18.161Z,0
2017-02-13T05:57:29.109Z,0
2017-02-13T05:58:39.002Z,0
2017-02-13T05:59:49.306Z,0
2017-02-13T06:00:59.601Z,0
2017-02-13T06:02:09.887Z,0
2017-02-13T06:03:20.431Z,0
2017-02-13T06:04:31.122Z,0
2017-02-13T06:05:41.374Z,0
2017-02-13T06:06:52.054Z,0
2017-02-13T06:08:02.718Z,0
2017-02-13T06:09:12.504Z,0
2017-02-13T06:10:22.788Z,0
2017-02-13T06:11:32.679Z,0
2017-02-13T06:12:43.356Z,0
2017-02-13T06:13:53.663Z,0
2017-02-13T06:15:04.673Z,0
2017-02-13T06:16:14.958Z,0
2017-02-13T06:17:25.624Z,0
2017-02-13T06:18:35.151Z,0
2017-02-13T06:19:45.831Z,0
2017-02-13T06:20:56.355Z,0
2017-02-13T06:22:07.029Z,0
2017-02-13T06:23:17.323Z,0
2017-02-13T06:24:27.592Z,0
2017-02-13T06:25:37.502Z,0
2017-02-13T06:26:48.020Z,0
2017-02-13T06:27:57.159Z,0
2017-02-13T06:29:07.443Z,0
2017-02-13T06:30:18.141Z,4
2017-02-13T06:31:28.853Z,4
2017-02-13T06:32:39.788Z,0
2017-02-13T06:33:50.052Z,0
2017-02-13T06:35:00.321Z,4
2017-02-13T06:36:11.293Z,4
2017-02-13T06:37:21.640Z,4
2017-02-13T06:38:31.775Z,4
2017-02-13T06:39:42.439Z,4
2017-02-13T06:40:52.751Z,8
2017-02-13T06:42:03.507Z,8
2017-02-13T06:43:13.450Z,12
2017-02-13T06:44:24.024Z,8
2017-02-13T06:45:34.362Z,12
2017-02-13T06:49:19.467Z,16
2017-02-13T06:50:29.769Z,16
2017-02-13T06:51:40.085Z,20
2017-02-13T06:52:50.382Z,20
2017-02-13T06:54:01.035Z,20
2017-02-13T06:55:11.609Z,28
2017-02-13T06:56:22.274Z,32
2017-02-13T06:57:32.551Z,32
2017-02-13T06:58:42.466Z,36
2017-02-13T06:59:52.376Z,40
2017-02-13T07:01:02.555Z,48
2017-02-13T07:02:12.470Z,44
2017-02-13T07:03:22.359Z,48
2017-02-13T07:04:32.704Z,52
2017-02-13T07:05:43.411Z,56
2017-02-13T07:06:54.431Z,56
2017-02-13T07:08:04.736Z,60
2017-02-13T07:09:14.253Z,72
2017-02-13T07:10:24.931Z,68
2017-02-13T07:11:35.220Z,76
2017-02-13T07:12:45.357Z,80
2017-02-13T07:13:56.034Z,84
2017-02-13T07:15:06.365Z,84
2017-02-13T07:16:16.288Z,88
2017-02-13T07:17:26.953Z,88
2017-02-13T07:18:37.887Z,96
2017-02-13T07:19:48.149Z,104
2017-02-13T07:20:58.882Z,104
2017-02-13T07:22:08.910Z,120
2017-02-13T07:23:19.197Z,144
2017-02-13T07:24:29.389Z,152
2017-02-13T07:25:40.054Z,148
2017-02-13T07:26:50.698Z,180
2017-02-13T07:28:00.984Z,176
2017-02-13T07:29:11.248Z,208
2017-02-13T07:30:21.783Z,212
2017-02-13T07:31:32.079Z,244
2017-02-13T07:32:41.968Z,268
2017-02-13T07:33:52.633Z,244
2017-02-13T07:35:03.305Z,232
2017-02-13T07:36:13.727Z,232
2017-02-13T07:37:24.039Z,248
2017-02-13T07:38:34.305Z,280
2017-02-13T07:39:44.968Z,284
2017-02-13T07:40:55.244Z,292
2017-02-13T07:42:05.831Z,280
2017-02-13T07:43:16.690Z,264
2017-02-13T07:44:27.115Z,244
2017-02-13T07:45:43.660Z,268
2017-02-13T07:46:54.340Z,260
2017-02-13T07:48:05.271Z,304
2017-02-13T07:49:15.565Z,360
2017-02-13T07:50:25.483Z,308
2017-02-13T07:51:36.277Z,348
2017-02-13T07:52:46.199Z,372
2017-02-13T07:53:56.729Z,388
2017-02-13T07:55:07.391Z,368
2017-02-13T07:56:17.661Z,408
2017-02-13T07:57:27.959Z,440
2017-02-13T07:58:38.279Z,448
2017-02-13T07:59:49.177Z,520
2017-02-13T08:00:59.883Z,464
2017-02-13T08:02:10.655Z,440
2017-02-13T08:03:21.431Z,496
2017-02-13T08:04:32.108Z,528
2017-02-13T08:05:42.640Z,452
2017-02-13T08:06:53.305Z,504
2017-02-13T08:08:03.958Z,504
2017-02-13T08:09:14.261Z,560
2017-02-13T08:10:24.940Z,612
2017-02-13T08:11:36.414Z,628
2017-02-13T08:12:46.282Z,692
2017-02-13T08:13:56.162Z,600
2017-02-13T08:15:06.467Z,784
2017-02-13T08:16:16.741Z,664
2017-02-13T08:17:27.287Z,680
2017-02-13T08:18:37.962Z,704
2017-02-13T08:19:48.664Z,704
2017-02-13T08:20:59.376Z,760
2017-02-13T08:22:10.035Z,668
2017-02-13T08:23:20.661Z,804
2017-02-13T08:24:31.331Z,704
2017-02-13T08:25:42.028Z,720
2017-02-13T08:26:52.695Z,808
2017-02-13T08:28:03.021Z,804
2017-02-13T08:29:13.979Z,792
2017-02-13T08:30:24.306Z,800
2017-02-13T08:31:34.643Z,872
2017-02-13T08:32:44.519Z,868
2017-02-13T08:33:55.185Z,948
2017-02-13T08:35:06.122Z,864
2017-02-13T08:36:16.433Z,932
2017-02-13T08:37:26.356Z,1000
2017-02-13T08:38:37.068Z,1028
2017-02-13T08:39:47.824Z,996
2017-02-13T08:40:58.380Z,1080
2017-02-13T08:42:09.060Z,1068
2017-02-13T08:43:18.951Z,1152
2017-02-13T08:44:29.642Z,1208
2017-02-13T08:45:39.932Z,1116
2017-02-13T08:46:50.526Z,1396
2017-02-13T08:48:01.104Z,1408
2017-02-13T08:49:11.007Z,1256
2017-02-13T08:50:20.924Z,1280
2017-02-13T08:51:30.833Z,1460
2017-02-13T08:52:41.748Z,1376
2017-02-13T08:53:52.050Z,1432
2017-02-13T08:55:01.971Z,1380
2017-02-13T08:56:11.959Z,1132
2017-02-13T08:57:22.253Z,1124
2017-02-13T08:58:33.214Z,1096
2017-02-13T08:59:43.892Z,1060
2017-02-13T09:00:53.792Z,1020
2017-02-13T09:02:04.508Z,1064
2017-02-13T09:03:14.798Z,1056
2017-02-13T09:04:24.946Z,1024
2017-02-13T09:05:35.614Z,1072
2017-02-13T09:06:46.285Z,980
2017-02-13T09:07:56.547Z,1092
2017-02-13T09:09:07.220Z,1016
2017-02-13T09:10:18.175Z,1092
2017-02-13T09:11:28.064Z,1036
2017-02-13T09:12:38.334Z,1024
2017-02-13T09:13:48.996Z,996
2017-02-13T09:14:59.982Z,1004
2017-02-13T09:16:09.734Z,1008
2017-02-13T09:17:20.051Z,988
2017-02-13T09:18:30.358Z,992
2017-02-13T09:19:40.635Z,996
2017-02-13T09:20:50.986Z,968
2017-02-13T09:22:01.564Z,1008
2017-02-13T09:23:12.245Z,972
2017-02-13T09:24:22.149Z,984
2017-02-13T09:25:32.062Z,988
2017-02-13T09:26:42.811Z,968
2017-02-13T09:27:52.574Z,984
2017-02-13T09:29:02.859Z,968
2017-02-13T09:30:13.168Z,940
2017-02-13T09:31:23.067Z,964
2017-02-13T09:32:33.353Z,936
2017-02-13T09:33:43.886Z,968
2017-02-13T09:34:53.785Z,968
2017-02-13T09:36:04.069Z,972
2017-02-13T09:37:14.000Z,956
2017-02-13T09:38:23.932Z,968
2017-02-13T09:39:34.444Z,972
2017-02-13T09:40:44.744Z,956
2017-02-13T09:41:55.094Z,952
2017-02-13T09:43:05.767Z,956
2017-02-13T09:44:16.070Z,936
2017-02-13T09:45:26.643Z,936
2017-02-13T09:46:37.316Z,904
2017-02-13T09:47:47.989Z,932
2017-02-13T09:48:57.910Z,928
2017-02-13T09:50:08.208Z,920
2017-02-13T09:51:18.731Z,936
2017-02-13T09:52:29.036Z,912
2017-02-13T09:53:39.726Z,912
2017-02-13T09:54:50.408Z,912
2017-02-13T09:56:00.717Z,916
2017-02-13T09:57:11.649Z,904
2017-02-13T09:58:21.554Z,904
2017-02-13T09:59:32.230Z,904
2017-02-13T10:00:42.520Z,924
2017-02-13T10:01:52.817Z,900
2017-02-13T10:03:03.738Z,896
2017-02-13T10:04:13.653Z,888
2017-02-13T10:05:23.584Z,892
2017-02-13T10:06:33.939Z,896
2017-02-13T10:07:44.750Z,888
2017-02-13T10:08:55.728Z,876
2017-02-13T10:10:06.430Z,884
2017-02-13T10:11:16.758Z,864
2017-02-13T10:12:27.067Z,864
2017-02-13T10:13:37.376Z,848
2017-02-13T10:14:48.310Z,852
2017-02-13T10:15:58.211Z,844
2017-02-13T10:17:08.558Z,836
2017-02-13T10:18:18.847Z,828
2017-02-13T10:19:29.144Z,832
2017-02-13T10:20:40.064Z,824
2017-02-13T10:21:50.354Z,824
2017-02-13T10:23:00.643Z,816
2017-02-13T10:24:10.972Z,812
2017-02-13T10:25:20.893Z,816
2017-02-13T10:26:31.437Z,816
2017-02-13T10:27:41.378Z,808
2017-02-13T10:28:51.667Z,808
2017-02-13T10:30:02.399Z,804
2017-02-13T10:31:13.077Z,800
2017-02-13T10:32:23.283Z,804
2017-02-13T10:33:33.197Z,788
2017-02-13T10:34:43.874Z,792
2017-02-13T10:35:53.809Z,788
2017-02-13T10:37:04.484Z,784
2017-02-13T10:38:15.019Z,780
2017-02-13T10:39:25.344Z,780
2017-02-13T10:40:35.243Z,784
2017-02-13T10:41:45.534Z,776
2017-02-13T10:42:55.423Z,768
2017-02-13T10:44:06.350Z,768
2017-02-13T10:45:16.641Z,768
2017-02-13T10:46:27.338Z,764
2017-02-13T10:47:37.643Z,764
2017-02-13T10:48:47.562Z,760
2017-02-13T10:49:58.112Z,760
2017-02-13T10:51:08.822Z,752
2017-02-13T10:52:18.704Z,752
2017-02-13T10:53:29.380Z,740
2017-02-13T10:54:39.656Z,740
2017-02-13T10:55:50.197Z,736
2017-02-13T10:57:00.470Z,728
2017-02-13T10:58:11.373Z,728
2017-02-13T10:59:22.109Z,724
2017-02-13T11:00:32.771Z,716
2017-02-13T11:01:43.696Z,716
2017-02-13T11:02:54.368Z,712
2017-02-13T11:04:05.080Z,712
2017-02-13T11:05:14.986Z,712
2017-02-13T11:06:25.251Z,708
2017-02-13T11:07:36.223Z,708
2017-02-13T11:08:46.884Z,704
2017-02-13T11:09:57.165Z,704
2017-02-13T11:11:07.092Z,712
2017-02-13T11:12:17.401Z,704
2017-02-13T11:13:28.324Z,700
2017-02-13T11:14:37.856Z,700
2017-02-13T11:15:48.522Z,700
2017-02-13T11:16:59.200Z,700
2017-02-13T11:18:09.519Z,696
2017-02-13T11:19:19.656Z,696
2017-02-13T11:20:29.941Z,696
2017-02-13T11:21:40.261Z,692
2017-02-13T11:22:50.946Z,692
2017-02-13T11:24:01.644Z,688
2017-02-13T11:25:11.798Z,688
2017-02-13T11:26:21.695Z,684
2017-02-13T11:27:32.346Z,680
2017-02-13T11:28:42.647Z,680
2017-02-13T11:29:52.553Z,684
2017-02-13T11:31:03.544Z,676
2017-02-13T11:32:13.488Z,672
2017-02-13T11:33:23.442Z,672
2017-02-13T11:34:32.970Z,672
2017-02-13T11:35:43.231Z,668
2017-02-13T11:36:54.301Z,668
2017-02-13T11:38:05.007Z,664
2017-02-13T11:39:14.519Z,668
2017-02-13T11:40:24.492Z,664
2017-02-13T11:41:35.163Z,668
2017-02-13T11:42:46.142Z,660
2017-02-13T11:43:56.429Z,660
2017-02-13T11:45:05.956Z,660
2017-02-13T11:46:16.232Z,660
2017-02-13T11:47:26.886Z,652
2017-02-13T11:48:37.844Z,656
2017-02-13T11:49:47.753Z,652
2017-02-13T11:50:58.038Z,648
2017-02-13T11:52:08.719Z,648
2017-02-13T11:53:19.407Z,652
2017-02-13T11:54:29.531Z,648
2017-02-13T11:55:39.839Z,652
2017-02-13T11:56:50.152Z,644
2017-02-13T11:57:59.672Z,648
2017-02-13T11:59:10.373Z,640
2017-02-13T12:00:20.573Z,648
2017-02-13T12:01:31.282Z,644
2017-02-13T12:02:40.808Z,644
2017-02-13T12:03:51.129Z,640
2017-02-13T12:05:01.410Z,644
2017-02-13T12:06:12.029Z,644
2017-02-13T12:07:21.932Z,644
2017-02-13T12:08:32.221Z,644
2017-02-13T12:09:42.101Z,644
2017-02-13T12:10:52.788Z,644
2017-02-13T12:12:03.307Z,644
2017-02-13T12:13:13.211Z,644
2017-02-13T12:14:23.897Z,644
2017-02-13T12:15:34.250Z,640
2017-02-13T12:16:44.565Z,636
2017-02-13T12:17:54.718Z,636
2017-02-13T12:19:05.388Z,632
2017-02-13T12:20:15.307Z,636
2017-02-13T12:21:24.832Z,636
2017-02-13T12:22:35.123Z,636
2017-02-13T12:23:46.053Z,636
2017-02-13T12:24:56.218Z,632
2017-02-13T12:26:06.492Z,636
2017-02-13T12:27:16.402Z,632
2017-02-13T12:28:26.675Z,628
2017-02-13T12:29:37.652Z,632
2017-02-13T12:30:47.958Z,632
2017-02-13T12:31:58.697Z,632
2017-02-13T12:33:09.042Z,632
2017-02-13T12:34:19.339Z,636
2017-02-13T12:35:30.341Z,636
2017-02-13T12:36:41.017Z,636
2017-02-13T12:37:51.325Z,632
2017-02-13T12:39:02.021Z,636
2017-02-13T12:40:12.675Z,636
2017-02-13T12:41:23.231Z,636
2017-02-13T12:42:33.930Z,636
2017-02-13T12:43:44.644Z,636
2017-02-13T12:45:38.674Z,632
2017-02-13T12:46:49.258Z,632
2017-02-13T12:47:59.947Z,636
2017-02-13T12:49:10.627Z,636
2017-02-13T12:50:20.895Z,636
2017-02-13T12:51:31.597Z,644
2017-02-13T12:52:42.187Z,640
2017-02-13T12:53:52.833Z,640
2017-02-13T12:55:03.131Z,640
2017-02-13T12:56:13.397Z,636
2017-02-13T12:57:24.073Z,640
2017-02-13T12:58:35.040Z,636
2017-02-13T12:59:45.716Z,640
2017-02-13T13:00:56.406Z,636
2017-02-13T13:02:06.709Z,636
2017-02-13T13:03:17.023Z,640
2017-02-13T13:04:27.577Z,636
2017-02-13T13:05:38.264Z,640
2017-02-13T13:06:48.914Z,644
2017-02-13T13:07:58.818Z,640
2017-02-13T13:09:09.488Z,636
2017-02-13T13:10:20.003Z,636
2017-02-13T13:11:30.711Z,636
2017-02-13T13:12:41.006Z,640
2017-02-13T13:13:51.689Z,636
2017-02-13T13:15:01.957Z,640
2017-02-13T13:16:12.502Z,640
2017-02-13T13:17:22.803Z,640
2017-02-13T13:18:31.530Z,640
2017-02-13T13:19:42.203Z,640
2017-02-13T13:20:52.874Z,640
2017-02-13T13:22:03.803Z,640
2017-02-13T13:23:14.518Z,640
2017-02-13T13:24:24.419Z,640
2017-02-13T13:25:35.121Z,636
2017-02-13T13:26:44.639Z,636
2017-02-13T13:27:55.552Z,636
2017-02-13T13:29:05.820Z,636
2017-02-13T13:30:16.106Z,632
2017-02-13T13:31:26.023Z,632
2017-02-13T13:32:36.716Z,632
2017-02-13T13:33:47.652Z,632
2017-02-13T13:34:57.545Z,624
2017-02-13T13:36:07.807Z,628
2017-02-13T13:37:18.483Z,624
2017-02-13T13:38:28.755Z,624
2017-02-13T13:39:39.350Z,624
2017-02-13T13:40:49.635Z,624
2017-02-13T13:42:00.292Z,624
2017-02-13T13:43:10.211Z,620
2017-02-13T13:44:20.124Z,616
2017-02-13T13:45:31.028Z,616
2017-02-13T13:46:40.935Z,612
2017-02-13T13:47:51.649Z,612
2017-02-13T13:49:01.950Z,612
2017-02-13T13:50:12.653Z,612
2017-02-13T13:51:23.601Z,608
2017-02-13T13:52:33.905Z,608
2017-02-13T13:53:44.199Z,604
2017-02-13T13:54:54.885Z,604
2017-02-13T13:56:04.779Z,604
2017-02-13T13:57:15.334Z,608
2017-02-13T13:58:25.655Z,604
2017-02-13T13:59:35.554Z,600
2017-02-13T14:00:46.245Z,600
2017-02-13T14:01:56.563Z,596
2017-02-13T14:03:07.524Z,596
2017-02-13T14:04:17.038Z,596
2017-02-13T14:05:26.937Z,592
2017-02-13T14:06:37.245Z,592
2017-02-13T14:07:47.525Z,588
2017-02-13T14:08:58.052Z,588
2017-02-13T14:10:07.968Z,588
2017-02-13T14:11:17.468Z,584
2017-02-13T14:12:28.181Z,584
2017-02-13T14:13:38.842Z,584
2017-02-13T14:14:49.036Z,584
2017-02-13T14:15:59.705Z,584
2017-02-13T14:17:09.990Z,584
2017-02-13T14:18:20.283Z,580
2017-02-13T14:19:30.963Z,580
2017-02-13T14:20:41.904Z,576
2017-02-13T14:21:52.206Z,576
2017-02-13T14:23:02.910Z,572
2017-02-13T14:24:12.825Z,572
2017-02-13T14:25:23.504Z,572
2017-02-13T14:26:34.077Z,572
2017-02-13T14:27:43.994Z,568
2017-02-13T14:28:53.908Z,568
2017-02-13T14:30:03.829Z,568
2017-02-13T14:31:14.106Z,564
2017-02-13T14:32:24.307Z,568
2017-02-13T14:33:34.219Z,560
2017-02-13T14:34:44.494Z,560
2017-02-13T14:35:55.169Z,556
2017-02-13T14:37:05.853Z,556
2017-02-13T14:38:16.059Z,556
2017-02-13T14:39:26.716Z,552
2017-02-13T14:40:37.659Z,548
2017-02-13T14:41:47.162Z,552
2017-02-13T14:42:57.831Z,548
2017-02-13T14:44:08.756Z,544
2017-02-13T14:45:19.433Z,544
2017-02-13T14:46:30.111Z,540
2017-02-13T14:47:40.784Z,536
2017-02-13T14:48:51.471Z,532
2017-02-13T14:50:02.407Z,532
2017-02-13T14:51:12.708Z,532
2017-02-13T14:52:23.016Z,528
2017-02-13T14:53:33.731Z,520
2017-02-13T14:54:43.629Z,516
2017-02-13T14:55:53.771Z,516
2017-02-13T14:57:04.054Z,516
2017-02-13T14:58:14.336Z,512
2017-02-13T14:59:24.232Z,508
2017-02-13T15:00:34.915Z,504
2017-02-13T15:01:45.526Z,504
2017-02-13T15:02:55.817Z,500
2017-02-13T15:04:06.105Z,500
2017-02-13T15:05:16.456Z,496
2017-02-13T15:06:27.150Z,492
2017-02-13T15:07:38.135Z,488
2017-02-13T15:08:48.832Z,484
2017-02-13T15:09:59.492Z,480
2017-02-13T15:11:10.192Z,480
2017-02-13T15:12:19.683Z,480
2017-02-13T15:13:30.284Z,476
2017-02-13T15:14:40.571Z,468
2017-02-13T15:15:50.865Z,468
2017-02-13T15:17:01.592Z,468
2017-02-13T15:18:11.120Z,460
2017-02-13T15:19:21.611Z,456
2017-02-13T15:20:31.505Z,456
2017-02-13T15:21:41.390Z,452
2017-02-13T15:22:51.328Z,448
2017-02-13T15:24:00.836Z,440
2017-02-13T15:25:11.390Z,440
2017-02-13T15:26:20.901Z,436
2017-02-13T15:27:31.602Z,432
2017-02-13T15:28:42.273Z,432
2017-02-13T15:29:52.563Z,424
2017-02-13T15:31:02.338Z,424
2017-02-13T15:32:13.014Z,416
2017-02-13T15:33:22.917Z,416
2017-02-13T15:34:33.658Z,408
2017-02-13T15:35:43.957Z,404
2017-02-13T15:36:53.719Z,400
2017-02-13T15:38:03.631Z,396
2017-02-13T15:39:13.931Z,392
2017-02-13T15:40:23.458Z,388
2017-02-13T15:41:33.746Z,384
2017-02-13T15:42:44.276Z,380
2017-02-13T15:43:54.544Z,372
2017-02-13T15:45:04.871Z,364
2017-02-13T15:46:14.776Z,364
2017-02-13T15:47:25.461Z,356
2017-02-13T15:48:36.020Z,352
2017-02-13T15:49:45.530Z,348
2017-02-13T15:50:55.420Z,340
2017-02-13T15:52:05.718Z,340
2017-02-13T15:53:15.611Z,332
2017-02-13T15:54:26.177Z,328
2017-02-13T15:55:36.843Z,320
2017-02-13T15:56:46.756Z,312
2017-02-13T15:57:57.413Z,308
2017-02-13T15:59:07.295Z,296
2017-02-13T16:00:17.536Z,292
2017-02-13T16:01:27.459Z,288
2017-02-13T16:02:37.740Z,280
2017-02-13T16:03:48.043Z,272
2017-02-13T16:04:58.388Z,268
2017-02-13T16:06:08.940Z,264
2017-02-13T16:07:19.253Z,256
2017-02-13T16:08:29.513Z,248
2017-02-13T16:09:39.817Z,244
2017-02-13T16:10:50.099Z,232
2017-02-13T16:12:00.258Z,228
2017-02-13T16:13:10.544Z,220
2017-02-13T16:14:20.462Z,216
2017-02-13T16:15:29.980Z,204
2017-02-13T16:16:40.672Z,200
2017-02-13T16:17:51.205Z,192
2017-02-13T16:19:01.494Z,188
2017-02-13T16:20:11.374Z,180
2017-02-13T16:21:22.030Z,168
2017-02-13T16:22:31.940Z,164
2017-02-13T16:23:42.479Z,156
2017-02-13T16:24:52.365Z,152
2017-02-13T16:26:02.644Z,140
2017-02-13T16:27:12.941Z,132
2017-02-13T16:28:23.223Z,128
2017-02-13T16:29:34.217Z,120
2017-02-13T16:30:44.517Z,112
2017-02-13T16:31:54.017Z,104
2017-02-13T16:33:04.326Z,96
2017-02-13T16:34:15.002Z,92
2017-02-13T16:35:25.583Z,84
2017-02-13T16:36:35.873Z,76
2017-02-13T16:37:46.543Z,72
2017-02-13T16:38:56.474Z,64
2017-02-13T16:40:06.787Z,60